createdAt,value
2019-03-19T00:04:29.350Z,4.20
2019-03-19T00:09:34.815Z,3.40
2019-03-19T00:14:40.299Z,3.43
2019-03-19T00:19:45.786Z,3.10
2019-03-19T00:24:51.320Z,3.57
2019-03-19T00:29:56.798Z,3.83
2019-03-19T00:35:02.334Z,3.90
2019-03-19T00:40:07.996Z,3.93
2019-03-19T00:45:13.523Z,4.17
2019-03-19T00:50:19.022Z,4.43
2019-03-19T00:55:24.536Z,5.27
2019-03-19T01:00:30.026Z,4.33
2019-03-19T01:05:35.554Z,4.30
2019-03-19T01:10:41.183Z,4.63
2019-03-19T01:15:46.710Z,4.63
2019-03-19T01:20:52.243Z,4.53
2019-03-19T01:25:57.755Z,4.27
2019-03-19T01:31:03.266Z,4.33
2019-03-19T01:36:08.803Z,5.57
2019-03-19T01:41:14.342Z,4.60
2019-03-19T01:46:19.885Z,5.10
2019-03-19T01:51:25.430Z,4.60
2019-03-19T01:56:31.079Z,5.10
2019-03-19T02:01:36.601Z,5.00
2019-03-19T02:06:42.134Z,4.50
2019-03-19T02:11:47.777Z,4.77
2019-03-19T02:16:53.294Z,4.93
2019-03-19T02:21:58.781Z,4.87
2019-03-19T02:27:04.338Z,4.40
2019-03-19T02:32:09.840Z,5.10
2019-03-19T02:37:15.404Z,5.23
2019-03-19T02:42:20.881Z,4.70
2019-03-19T02:47:26.392Z,5.10
2019-03-19T02:52:31.930Z,5.20
2019-03-19T02:57:37.486Z,5.10
2019-03-19T03:02:43.000Z,4.93
2019-03-19T03:07:48.525Z,5.67
2019-03-19T03:12:54.059Z,4.50
2019-03-19T03:17:59.571Z,6.17
2019-03-19T03:23:05.136Z,5.10
2019-03-19T03:28:10.617Z,5.33
2019-03-19T03:33:16.088Z,4.93
2019-03-19T03:38:21.571Z,5.37
2019-03-19T03:43:27.131Z,5.00
2019-03-19T03:48:32.621Z,5.23
2019-03-19T03:53:38.110Z,5.30
2019-03-19T03:58:43.592Z,5.43
2019-03-19T04:03:49.208Z,5.70
2019-03-19T04:08:54.809Z,5.33
2019-03-19T04:14:00.368Z,5.53
2019-03-19T04:19:05.871Z,5.17
2019-03-19T04:24:11.356Z,5.43
2019-03-19T04:29:17.046Z,6.03
2019-03-19T04:34:22.537Z,5.20
2019-03-19T04:39:28.026Z,5.67
2019-03-19T04:44:33.529Z,6.43
2019-03-19T04:49:39.089Z,5.33
2019-03-19T04:54:44.619Z,6.10
2019-03-19T04:59:50.117Z,5.90
2019-03-19T05:04:55.590Z,5.70
2019-03-19T05:10:01.166Z,6.13
2019-03-19T05:15:07.188Z,5.57
2019-03-19T05:20:12.876Z,5.10
2019-03-19T05:25:18.480Z,6.27
2019-03-19T05:30:23.959Z,5.80
2019-03-19T05:35:29.447Z,5.50
2019-03-19T05:40:34.946Z,5.73
2019-03-19T05:45:40.465Z,5.70
2019-03-19T05:50:45.976Z,6.30
2019-03-19T05:55:51.618Z,5.90
2019-03-19T06:00:57.104Z,5.73
2019-03-19T06:06:02.604Z,6.20
2019-03-19T06:11:08.134Z,6.47
2019-03-19T06:16:13.860Z,6.80
2019-03-19T06:21:19.366Z,7.07
2019-03-19T06:26:25.005Z,7.60
2019-03-19T06:31:30.581Z,6.90
2019-03-19T06:36:36.162Z,6.53
2019-03-19T06:41:41.834Z,6.70
2019-03-19T06:46:47.327Z,7.10
2019-03-19T06:51:52.882Z,6.23
2019-03-19T06:56:58.638Z,7.37
2019-03-19T07:02:04.123Z,6.70
2019-03-19T07:07:09.828Z,6.07
2019-03-19T07:12:15.358Z,5.80
2019-03-19T07:17:20.856Z,5.57
2019-03-19T07:22:26.369Z,5.40
2019-03-19T07:27:32.003Z,5.13
2019-03-19T07:32:37.534Z,5.03
2019-03-19T07:37:43.291Z,5.20
2019-03-19T07:42:48.797Z,5.13
2019-03-19T07:47:54.313Z,5.03
2019-03-19T07:52:59.950Z,5.47
2019-03-19T07:58:05.565Z,5.73
2019-03-19T08:03:15.973Z,5.57
2019-03-19T08:08:18.201Z,6.00
2019-03-19T08:13:24.005Z,6.13
2019-03-19T08:18:29.817Z,7.13
2019-03-19T08:23:35.639Z,5.80
2019-03-19T08:28:41.518Z,5.40
2019-03-19T08:33:47.323Z,5.70
2019-03-19T08:38:53.225Z,4.87
2019-03-19T08:43:58.998Z,5.17
2019-03-19T08:49:04.880Z,4.97
2019-03-19T08:54:10.843Z,5.10
2019-03-19T08:59:16.730Z,4.67
2019-03-19T09:04:22.495Z,4.53
2019-03-19T09:09:28.357Z,4.33
2019-03-19T09:14:34.187Z,4.53
2019-03-19T09:19:39.992Z,4.37
2019-03-19T09:24:45.987Z,4.50
2019-03-19T09:29:51.820Z,4.20
2019-03-19T09:34:57.621Z,4.73
2019-03-19T09:40:03.405Z,4.10
2019-03-19T09:45:09.629Z,3.73
2019-03-19T09:50:16.149Z,4.30
2019-03-19T09:55:22.043Z,3.80
2019-03-19T10:00:27.855Z,3.93
2019-03-19T10:05:33.657Z,4.03
2019-03-19T10:10:39.666Z,2.70
2019-03-19T10:15:45.222Z,2.80
2019-03-19T10:20:50.743Z,11.03
2019-03-19T10:25:56.337Z,3.20
2019-03-19T10:31:03.635Z,2.53
2019-03-19T10:36:09.200Z,2.43
2019-03-19T10:41:14.886Z,2.83
2019-03-19T10:46:20.435Z,2.60
2019-03-19T10:51:25.991Z,2.00
2019-03-19T10:56:31.555Z,2.47
2019-03-19T11:01:37.114Z,2.47
2019-03-19T11:06:42.630Z,2.77
2019-03-19T11:11:48.141Z,2.40
2019-03-19T11:16:53.694Z,2.57
2019-03-19T11:21:59.305Z,2.70
2019-03-19T11:27:04.795Z,2.40
2019-03-19T11:32:10.352Z,2.80
2019-03-19T11:37:15.876Z,2.87
2019-03-19T11:42:21.578Z,2.80
2019-03-19T11:47:27.087Z,2.60
2019-03-19T11:52:32.677Z,2.77
2019-03-19T11:57:38.261Z,2.50
2019-03-19T12:02:43.734Z,2.60
2019-03-19T12:07:49.372Z,2.97
2019-03-19T12:12:54.877Z,2.30
2019-03-19T12:18:00.413Z,2.30
2019-03-19T12:23:06.137Z,2.40
2019-03-19T12:28:11.746Z,2.47
2019-03-19T12:33:17.299Z,2.77
2019-03-19T12:38:22.803Z,2.83
2019-03-19T12:43:28.317Z,2.90
2019-03-19T12:48:33.800Z,2.40
2019-03-19T12:53:39.485Z,2.67
2019-03-19T12:58:45.000Z,2.43
2019-03-19T13:03:50.472Z,2.70
2019-03-19T13:08:55.996Z,2.30
2019-03-19T13:14:01.651Z,2.70
2019-03-19T13:19:07.159Z,2.97
2019-03-19T13:24:12.699Z,3.10
2019-03-19T13:29:18.221Z,2.50
2019-03-19T13:34:23.861Z,2.97
2019-03-19T13:39:29.444Z,2.33
2019-03-19T13:44:35.038Z,2.20
2019-03-19T13:49:40.657Z,2.43
2019-03-19T13:54:46.287Z,2.70
2019-03-19T13:59:51.824Z,3.10
2019-03-19T14:04:57.333Z,3.30
2019-03-19T14:10:02.879Z,2.47
2019-03-19T14:15:10.733Z,2.80
2019-03-19T14:20:16.875Z,2.47
2019-03-19T14:25:22.406Z,2.40
2019-03-19T14:30:28.075Z,2.33
2019-03-19T14:35:37.535Z,2.33
2019-03-19T14:40:40.788Z,2.37
2019-03-19T14:45:46.381Z,3.07
2019-03-19T14:50:51.937Z,3.33
2019-03-19T14:55:57.500Z,2.43
2019-03-19T15:01:02.996Z,3.80
2019-03-19T15:06:08.602Z,2.60
2019-03-19T15:11:14.137Z,2.23
2019-03-19T15:16:19.627Z,2.93
2019-03-19T15:21:25.254Z,2.63
2019-03-19T15:26:30.887Z,3.27
2019-03-19T15:31:36.615Z,2.77
2019-03-19T15:36:42.138Z,3.30
2019-03-19T15:41:47.680Z,2.83
2019-03-19T15:46:53.214Z,3.17
2019-03-19T15:51:58.851Z,3.03
2019-03-19T15:57:04.386Z,3.10
2019-03-19T16:02:10.052Z,3.00
2019-03-19T16:07:15.547Z,3.20
2019-03-19T16:12:21.247Z,3.10
2019-03-19T16:17:26.958Z,3.30
2019-03-19T16:22:32.611Z,3.07
2019-03-19T16:27:38.127Z,3.07
2019-03-19T16:32:44.013Z,3.73
2019-03-19T16:37:49.568Z,3.70
2019-03-19T16:42:55.272Z,3.77
2019-03-19T16:48:01.133Z,4.13
2019-03-19T16:53:06.731Z,3.60
2019-03-19T16:58:12.291Z,3.00
2019-03-19T17:03:17.776Z,4.27
2019-03-19T17:08:23.351Z,3.87
2019-03-19T17:13:28.966Z,3.97
2019-03-19T17:18:34.464Z,3.67
2019-03-19T17:23:40.057Z,3.90
2019-03-19T17:28:45.704Z,3.97
2019-03-19T17:33:51.262Z,3.97
2019-03-19T17:38:56.889Z,3.40
2019-03-19T17:44:02.518Z,4.10
2019-03-19T17:49:08.263Z,3.60
2019-03-19T17:54:13.762Z,3.73
2019-03-19T17:59:19.496Z,4.30
2019-03-19T18:04:25.309Z,4.17
2019-03-19T18:09:30.866Z,3.37
2019-03-19T18:14:36.345Z,4.00
2019-03-19T18:19:42.237Z,4.17
2019-03-19T18:24:48.326Z,4.53
2019-03-19T18:29:55.551Z,4.20
2019-03-19T18:35:04.643Z,4.33
2019-03-19T18:40:10.305Z,4.70
2019-03-19T18:45:15.866Z,4.83
2019-03-19T18:50:21.381Z,4.77
2019-03-19T18:55:27.019Z,4.90
2019-03-19T19:00:32.556Z,4.40
2019-03-19T19:05:38.109Z,4.80
2019-03-19T19:10:43.785Z,5.40
2019-03-19T19:15:49.347Z,4.53
2019-03-19T19:20:54.847Z,5.10
2019-03-19T19:26:00.499Z,4.70
2019-03-19T19:31:06.074Z,5.13
2019-03-19T19:36:16.737Z,5.87
2019-03-19T19:41:22.646Z,5.23
2019-03-19T19:46:28.335Z,5.97
2019-03-19T19:51:33.968Z,5.20
2019-03-19T19:56:40.407Z,5.17
2019-03-19T20:01:46.158Z,5.10
2019-03-19T20:06:51.976Z,4.97
2019-03-19T20:11:57.537Z,4.87
2019-03-19T20:17:03.065Z,4.57
2019-03-19T20:22:08.690Z,5.13
2019-03-19T20:27:14.710Z,5.90
2019-03-19T20:32:20.431Z,5.00
2019-03-19T20:37:26.047Z,5.60
2019-03-19T20:42:31.591Z,5.20
2019-03-19T20:47:37.160Z,5.40
2019-03-19T20:52:42.633Z,5.37
2019-03-19T20:57:48.253Z,5.03
2019-03-19T21:02:53.782Z,5.90
2019-03-19T21:07:59.382Z,5.20
2019-03-19T21:13:05.042Z,6.10
2019-03-19T21:18:10.523Z,6.10
2019-03-19T21:23:16.052Z,5.97
2019-03-19T21:28:21.522Z,6.13
2019-03-19T21:33:27.086Z,5.57
2019-03-19T21:38:32.604Z,6.60
2019-03-19T21:43:38.127Z,5.67
2019-03-19T21:48:43.638Z,6.30
2019-03-19T21:53:49.189Z,6.23
2019-03-19T21:58:54.738Z,6.43
2019-03-19T22:04:03.288Z,7.17
2019-03-19T22:09:08.336Z,8.27
2019-03-19T22:14:13.976Z,6.73
2019-03-19T22:19:19.456Z,7.20
2019-03-19T22:24:24.982Z,8.30
2019-03-19T22:29:30.469Z,8.30
2019-03-19T22:34:35.965Z,8.47
2019-03-19T22:39:42.735Z,7.73
2019-03-19T22:44:48.308Z,8.33
2019-03-19T22:49:53.793Z,8.97
2019-03-19T22:54:59.340Z,8.67
2019-03-19T23:00:06.514Z,8.90
2019-03-19T23:05:12.015Z,9.67
2019-03-19T23:10:17.565Z,8.30
2019-03-19T23:15:23.076Z,8.10
2019-03-19T23:20:28.717Z,7.93
2019-03-19T23:25:34.204Z,7.50
2019-03-19T23:30:39.797Z,7.20
2019-03-19T23:35:45.305Z,7.43
2019-03-19T23:40:50.796Z,6.47
2019-03-19T23:45:56.324Z,6.40
2019-03-19T23:51:01.909Z,7.20
2019-03-19T23:56:07.529Z,6.17
